Time;durP1;ratioP1;P1;durP2;ratioP2;P2;SDS_P1;SDS_P2;PMS_P1;PMS_P2;Temp;Humidity;BMP_temperature;BMP_pressure;BME280_temperature;BME280_humidity;BME280_pressure;Samples;Min_cycle;Max_cycle;Signal;HPM_P1;HPM_P2
2022/07/03 00:04:20;;;;;;;6.90;3.13;;;;;;;;;;10481607;28;20090;-78
2022/07/03 00:09:24;;;;;;;5.32;3.03;;;;;;;;;;10483149;28;20240;-74
2022/07/03 00:14:27;;;;;;;6.05;2.97;;;;;;;;;;10481587;28;20036;-75
2022/07/03 00:19:30;;;;;;;5.23;3.40;;;;;;;;;;10499296;28;20071;-74
2022/07/03 00:24:40;;;;;;;7.40;3.20;;;;;;;;;;10499691;28;20086;-76
2022/07/03 00:29:44;;;;;;;8.77;3.90;;;;;;;;;;10494443;28;20032;-76
2022/07/03 00:34:47;;;;;;;5.32;3.47;;;;;;;;;;10487947;28;20036;-77
2022/07/03 00:39:51;;;;;;;10.88;4.43;;;;;;;;;;10473217;28;20633;-75
2022/07/03 00:44:55;;;;;;;10.32;5.50;;;;;;;;;;10456797;28;20045;-75
2022/07/03 00:49:58;;;;;;;9.18;4.53;;;;;;;;;;10486425;28;20056;-76
2022/07/03 00:55:07;;;;;;;9.80;4.70;;;;;;;;;;10482003;28;20108;-74
2022/07/03 01:00:10;;;;;;;12.95;4.88;;;;;;;;;;10475579;28;20105;-76
2022/07/03 01:05:16;;;;;;;8.43;4.53;;;;;;;;;;10494264;28;20049;-75
2022/07/03 01:10:28;;;;;;;8.68;4.20;;;;;;;;;;10475698;28;20049;-77
2022/07/03 01:15:37;;;;;;;8.83;4.47;;;;;;;;;;10483470;28;20041;-74
2022/07/03 01:20:42;;;;;;;7.88;4.25;;;;;;;;;;10482745;28;20040;-77
2022/07/03 01:25:48;;;;;;;9.77;4.88;;;;;;;;;;10484296;28;20033;-76
2022/07/03 01:30:58;;;;;;;8.55;4.93;;;;;;;;;;10474460;28;20411;-75
2022/07/03 01:36:22;;;;;;;8.18;4.43;;;;;;;;;;10467586;28;20056;-76
2022/07/03 01:41:29;;;;;;;10.93;5.20;;;;;;;;;;10466119;28;20072;-77
2022/07/03 01:46:32;;;;;;;7.78;4.47;;;;;;;;;;10481420;28;20040;-75
2022/07/03 01:51:35;;;;;;;6.97;4.30;;;;;;;;;;10480711;28;20090;-76
2022/07/03 01:56:40;;;;;;;8.33;4.50;;;;;;;;;;10466503;28;20025;-75
2022/07/03 02:01:46;;;;;;;10.90;4.90;;;;;;;;;;10465331;28;20307;-77
2022/07/03 02:06:51;;;;;;;8.98;4.60;;;;;;;;;;10469039;28;20082;-78
2022/07/03 02:11:55;;;;;;;9.77;5.20;;;;;;;;;;10472965;28;20048;-76
2022/07/03 02:17:03;;;;;;;7.18;3.70;;;;;;;;;;10468215;28;20040;-75
2022/07/03 02:22:08;;;;;;;8.07;4.72;;;;;;;;;;10465473;28;20808;-74
2022/07/03 02:27:15;;;;;;;4.32;2.83;;;;;;;;;;10462258;28;20133;-75
2022/07/03 02:32:21;;;;;;;3.03;1.80;;;;;;;;;;10475549;28;20543;-74
2022/07/03 02:37:29;;;;;;;4.90;3.10;;;;;;;;;;10464028;28;20037;-76
2022/07/03 02:42:36;;;;;;;5.30;2.58;;;;;;;;;;10476673;28;20035;-74
2022/07/03 02:47:46;;;;;;;4.47;2.88;;;;;;;;;;10464253;28;20128;-76
2022/07/03 02:52:59;;;;;;;5.63;2.35;;;;;;;;;;10466456;28;20098;-75
2022/07/03 02:58:13;;;;;;;3.92;2.53;;;;;;;;;;10485453;28;20032;-75
2022/07/03 03:03:20;;;;;;;4.80;2.58;;;;;;;;;;10471751;28;20040;-73
2022/07/03 03:08:30;;;;;;;5.70;2.80;;;;;;;;;;10487782;28;20036;-75
2022/07/03 03:13:34;;;;;;;4.10;2.42;;;;;;;;;;10486322;28;20039;-75
2022/07/03 03:18:38;;;;;;;5.63;2.55;;;;;;;;;;10475048;28;20065;-75
2022/07/03 03:23:48;;;;;;;3.30;2.30;;;;;;;;;;10464562;28;20040;-74
2022/07/03 03:28:52;;;;;;;4.63;2.50;;;;;;;;;;10482397;28;20151;-74
2022/07/03 03:33:56;;;;;;;3.08;2.03;;;;;;;;;;10480066;28;20032;-76
2022/07/03 03:38:58;;;;;;;3.13;2.40;;;;;;;;;;10478949;28;20075;-77
2022/07/03 03:44:02;;;;;;;4.50;2.20;;;;;;;;;;10491691;28;20751;-72
2022/07/03 03:49:05;;;;;;;4.90;2.42;;;;;;;;;;10491012;28;20131;-74
2022/07/03 03:54:08;;;;;;;3.83;2.70;;;;;;;;;;10493129;28;20094;-73
2022/07/03 03:59:13;;;;;;;4.35;2.65;;;;;;;;;;10493209;28;20044;-74
2022/07/03 04:04:17;;;;;;;4.88;2.70;;;;;;;;;;10471528;28;20091;-75
2022/07/03 04:09:20;;;;;;;4.13;2.45;;;;;;;;;;10491296;28;20042;-75
2022/07/03 04:14:24;;;;;;;3.25;2.40;;;;;;;;;;10489855;28;20037;-75
2022/07/03 04:19:26;;;;;;;5.80;2.22;;;;;;;;;;10475474;28;20510;-74
2022/07/03 04:24:30;;;;;;;3.40;2.33;;;;;;;;;;10492542;28;20036;-73
2022/07/03 04:29:35;;;;;;;2.40;1.90;;;;;;;;;;10491906;28;20361;-74
2022/07/03 04:34:38;;;;;;;6.18;2.35;;;;;;;;;;10490560;28;20221;-73
2022/07/03 04:39:41;;;;;;;4.65;2.40;;;;;;;;;;10494388;28;20028;-74
2022/07/03 04:44:46;;;;;;;4.50;2.40;;;;;;;;;;10494934;28;20032;-74
2022/07/03 04:49:49;;;;;;;3.42;2.17;;;;;;;;;;10494482;28;20031;-73
2022/07/03 04:54:52;;;;;;;4.40;2.60;;;;;;;;;;10493053;28;20048;-75
2022/07/03 04:59:57;;;;;;;2.75;2.13;;;;;;;;;;10483281;28;20463;-73
2022/07/03 05:05:03;;;;;;;4.28;2.33;;;;;;;;;;10496517;28;20033;-74
2022/07/03 05:10:07;;;;;;;3.88;2.22;;;;;;;;;;10480172;28;20043;-75
2022/07/03 05:15:11;;;;;;;3.55;2.30;;;;;;;;;;10472558;28;20048;-76
2022/07/03 05:25:34;;;;;;;3.47;2.55;;;;;;;;;;10483498;28;20620;-75
2022/07/03 05:30:38;;;;;;;3.53;2.20;;;;;;;;;;10473835;28;20048;-74
2022/07/03 05:35:41;;;;;;;2.92;1.92;;;;;;;;;;10485953;28;20115;-74
2022/07/03 05:40:45;;;;;;;;;;;;;;;;;;10472951;28;20040;-73
2022/07/03 05:45:49;;;;;;;5.20;2.30;;;;;;;;;;10488353;28;20046;-74
2022/07/03 05:50:52;;;;;;;3.17;2.35;;;;;;;;;;10480338;28;20230;-72
2022/07/03 05:55:56;;;;;;;4.68;2.30;;;;;;;;;;10481507;28;20075;-74
2022/07/03 06:01:00;;;;;;;4.35;2.53;;;;;;;;;;10472117;28;20059;-75
2022/07/03 06:06:03;;;;;;;4.85;2.45;;;;;;;;;;10492938;28;20025;-74
2022/07/03 06:11:06;;;;;;;2.50;1.60;;;;;;;;;;10483653;28;20041;-74
2022/07/03 06:16:10;;;;;;;4.38;1.77;;;;;;;;;;10475569;28;20120;-75
2022/07/03 06:21:13;;;;;;;3.10;1.90;;;;;;;;;;10488453;28;20051;-74
2022/07/03 06:26:16;;;;;;;;;;;;;;;;;;10476720;28;20036;-74
2022/07/03 06:31:20;;;;;;;3.38;1.60;;;;;;;;;;10470372;28;20042;-75
2022/07/03 06:36:23;;;;;;;2.95;1.90;;;;;;;;;;10490076;28;20024;-76
2022/07/03 06:41:26;;;;;;;2.63;2.00;;;;;;;;;;10473891;28;20048;-76
2022/07/03 06:46:30;;;;;;;2.78;1.70;;;;;;;;;;10460858;28;20159;-76
2022/07/03 06:51:33;;;;;;;3.08;2.08;;;;;;;;;;10485069;28;20040;-75
2022/07/03 06:56:36;;;;;;;4.15;2.00;;;;;;;;;;10467597;28;20040;-75
2022/07/03 07:01:40;;;;;;;3.10;2.20;;;;;;;;;;10468718;28;20040;-75
2022/07/03 07:06:43;;;;;;;2.55;1.98;;;;;;;;;;10482450;28;20035;-75
2022/07/03 07:11:46;;;;;;;3.13;1.98;;;;;;;;;;10485456;28;20059;-75
2022/07/03 07:16:51;;;;;;;2.28;1.73;;;;;;;;;;10468652;28;20078;-74
2022/07/03 07:21:53;;;;;;;3.42;1.88;;;;;;;;;;10482637;28;20134;-74
2022/07/03 07:26:56;;;;;;;4.22;1.88;;;;;;;;;;10481510;28;20041;-76
2022/07/03 07:32:01;;;;;;;4.90;2.10;;;;;;;;;;10495709;28;20069;-76
2022/07/03 07:37:04;;;;;;;2.40;2.20;;;;;;;;;;10488025;28;20718;-75
2022/07/03 07:42:07;;;;;;;2.17;1.90;;;;;;;;;;10471957;28;20065;-76
2022/07/03 07:47:12;;;;;;;4.45;2.60;;;;;;;;;;10463275;28;20106;-74
2022/07/03 07:52:15;;;;;;;3.25;2.20;;;;;;;;;;10468987;28;20036;-76
2022/07/03 07:57:20;;;;;;;2.30;2.10;;;;;;;;;;10476998;28;20702;-77
2022/07/03 08:07:44;;;;;;;2.70;2.20;;;;;;;;;;10486795;28;20515;-75
2022/07/03 08:12:47;;;;;;;4.50;2.00;;;;;;;;;;10457216;28;20508;-74
2022/07/03 08:17:51;;;;;;;2.40;2.20;;;;;;;;;;10457580;28;20037;-75
2022/07/03 08:22:54;;;;;;;2.72;2.00;;;;;;;;;;10455552;28;20047;-74
2022/07/03 08:27:57;;;;;;;2.25;1.90;;;;;;;;;;10470299;28;20043;-75
2022/07/03 08:33:01;;;;;;;2.05;1.80;;;;;;;;;;10465366;28;20078;-74
2022/07/03 08:38:04;;;;;;;2.53;1.85;;;;;;;;;;10483827;28;20162;-75
2022/07/03 08:43:08;;;;;;;2.05;1.95;;;;;;;;;;10468769;28;20123;-75
2022/07/03 08:48:13;;;;;;;1.80;1.70;;;;;;;;;;10488643;28;20036;-75
2022/07/03 08:53:20;;;;;;;3.17;2.13;;;;;;;;;;10462741;28;20139;-75
2022/07/03 08:58:24;;;;;;;2.13;2.00;;;;;;;;;;10462006;28;20041;-75
2022/07/03 09:03:29;;;;;;;2.30;2.10;;;;;;;;;;10478190;28;20064;-74
2022/07/03 09:08:33;;;;;;;2.22;2.03;;;;;;;;;;10483103;28;20490;-77
2022/07/03 09:13:35;;;;;;;1.77;1.67;;;;;;;;;;10469235;28;20044;-78
2022/07/03 09:18:40;;;;;;;2.05;1.95;;;;;;;;;;10479908;28;20539;-74
2022/07/03 09:23:43;;;;;;;3.40;2.20;;;;;;;;;;10472507;28;20067;-75
2022/07/03 09:28:51;;;;;;;3.08;2.15;;;;;;;;;;10486890;28;20410;-76
2022/07/03 09:33:57;;;;;;;2.10;2.00;;;;;;;;;;10478920;28;20041;-78
2022/07/03 09:39:00;;;;;;;2.03;1.92;;;;;;;;;;10472767;28;20032;-76
2022/07/03 09:44:02;;;;;;;3.65;2.40;;;;;;;;;;10486356;28;20036;-76
2022/07/03 09:49:07;;;;;;;2.28;2.17;;;;;;;;;;10470088;28;20032;-76
2022/07/03 09:54:15;;;;;;;2.30;2.15;;;;;;;;;;10465550;28;20081;-78
2022/07/03 09:59:18;;;;;;;2.22;2.08;;;;;;;;;;10474183;28;20049;-77
2022/07/03 10:04:23;;;;;;;2.88;2.45;;;;;;;;;;10467233;28;20504;-76
2022/07/03 10:09:26;;;;;;;3.45;2.60;;;;;;;;;;10483157;28;20070;-75
2022/07/03 10:14:30;;;;;;;3.72;3.38;;;;;;;;;;10468545;28;20028;-76
2022/07/03 10:19:40;;;;;;;3.03;2.83;;;;;;;;;;10480581;28;20025;-77
2022/07/03 10:24:43;;;;;;;2.95;2.65;;;;;;;;;;10458996;28;20044;-76
2022/07/03 10:29:47;;;;;;;4.60;3.30;;;;;;;;;;10465928;28;20583;-76
2022/07/03 10:34:51;;;;;;;3.83;3.53;;;;;;;;;;10475334;28;20036;-75
2022/07/03 10:44:45;;;;;;;3.13;2.45;;;;;;;;;;10478256;28;20025;-76
2022/07/03 10:45:24;;;;;;;2.40;2.30;;;;;;;;;;10487883;28;20669;-77
2022/07/03 10:50:29;;;;;;;2.53;2.30;;;;;;;;;;10486644;28;20054;-77
2022/07/03 10:55:47;;;;;;;2.67;2.47;;;;;;;;;;10468192;28;20105;-75
2022/07/03 11:00:52;;;;;;;2.70;1.88;;;;;;;;;;10468632;28;20043;-75
2022/07/03 11:05:56;;;;;;;3.50;1.90;;;;;;;;;;10493957;28;20406;-74
2022/07/03 11:16:22;;;;;;;2.40;2.20;;;;;;;;;;10467417;28;20114;-76
2022/07/03 11:21:37;;;;;;;1.60;1.50;;;;;;;;;;10484545;28;20064;-77
2022/07/03 11:26:40;;;;;;;3.67;3.15;;;;;;;;;;10479384;28;20094;-77
2022/07/03 11:31:42;;;;;;;2.05;1.95;;;;;;;;;;10471863;28;20454;-74
2022/07/03 11:36:46;;;;;;;1.90;1.80;;;;;;;;;;10478139;28;20032;-75
2022/07/03 11:41:49;;;;;;;3.67;2.45;;;;;;;;;;10453296;28;20511;-75
2022/07/03 11:46:52;;;;;;;1.88;1.67;;;;;;;;;;10486344;28;20040;-76
2022/07/03 11:51:58;;;;;;;2.42;2.22;;;;;;;;;;10479014;28;20060;-76
2022/07/03 11:57:01;;;;;;;1.85;1.75;;;;;;;;;;10474172;28;20044;-76
2022/07/03 12:02:04;;;;;;;2.28;1.73;;;;;;;;;;10500540;28;20048;-77
2022/07/03 12:07:08;;;;;;;3.42;1.50;;;;;;;;;;10482013;28;20040;-77
2022/07/03 12:12:11;;;;;;;1.80;1.70;;;;;;;;;;10480796;28;20059;-77
2022/07/03 12:17:20;;;;;;;1.80;1.70;;;;;;;;;;10468513;28;20101;-76
2022/07/03 12:22:24;;;;;;;3.90;1.50;;;;;;;;;;10499186;28;20032;-76
2022/07/03 12:27:27;;;;;;;1.63;1.52;;;;;;;;;;10483148;28;20067;-76
2022/07/03 12:32:30;;;;;;;2.03;1.50;;;;;;;;;;10475535;28;20093;-77
2022/07/03 12:37:35;;;;;;;3.47;1.50;;;;;;;;;;10499240;28;20056;-77
2022/07/03 12:42:44;;;;;;;1.75;1.63;;;;;;;;;;10491388;28;20048;-76
2022/07/03 12:47:47;;;;;;;1.35;1.25;;;;;;;;;;10494275;28;20059;-77
2022/07/03 12:52:52;;;;;;;1.67;1.40;;;;;;;;;;10473306;28;20047;-76
2022/07/03 13:03:50;;;;;;;3.17;1.40;;;;;;;;;;10378669;28;20046;-77
2022/07/03 13:08:58;;;;;;;2.03;1.30;;;;;;;;;;10463388;28;20053;-75
2022/07/03 13:14:05;;;;;;;1.92;1.63;;;;;;;;;;10475067;28;20052;-76
2022/07/03 13:19:08;;;;;;;1.52;1.33;;;;;;;;;;10477909;28;20064;-76
2022/07/03 13:24:14;;;;;;;1.40;1.30;;;;;;;;;;10498218;28;20044;-77
2022/07/03 13:29:17;;;;;;;2.13;1.70;;;;;;;;;;10476356;28;20064;-77
2022/07/03 13:34:20;;;;;;;4.63;1.42;;;;;;;;;;10471927;28;20063;-74
2022/07/03 13:39:24;;;;;;;2.05;1.75;;;;;;;;;;10491849;28;20032;-75
2022/07/03 13:44:27;;;;;;;5.45;2.00;;;;;;;;;;10485139;28;20490;-76
2022/07/03 13:49:29;;;;;;;3.88;1.58;;;;;;;;;;10466351;28;20094;-75
2022/07/03 13:54:33;;;;;;;26.90;3.50;;;;;;;;;;10489542;28;20178;-74
2022/07/03 13:59:36;;;;;;;5.72;1.60;;;;;;;;;;10477522;28;20096;-77
2022/07/03 14:04:39;;;;;;;1.73;1.20;;;;;;;;;;10474850;28;20063;-76
2022/07/03 14:09:44;;;;;;;1.60;1.38;;;;;;;;;;10497708;28;20067;-77
2022/07/03 14:14:48;;;;;;;1.10;1.00;;;;;;;;;;10474572;28;20044;-76
2022/07/03 14:19:50;;;;;;;1.88;1.40;;;;;;;;;;10500570;28;20096;-77
2022/07/03 14:24:55;;;;;;;1.55;1.38;;;;;;;;;;10495122;28;20059;-77
2022/07/03 14:35:18;;;;;;;1.58;1.20;;;;;;;;;;10474138;28;20054;-76
2022/07/03 14:40:23;;;;;;;3.13;1.50;;;;;;;;;;10490474;28;20048;-75
2022/07/03 14:45:26;;;;;;;2.15;1.20;;;;;;;;;;10489237;28;20532;-74
2022/07/03 14:50:29;;;;;;;1.88;1.33;;;;;;;;;;10476889;28;20045;-75
2022/07/03 14:55:36;;;;;;;1.95;1.40;;;;;;;;;;10477302;28;20116;-76
2022/07/03 15:00:41;;;;;;;1.85;1.50;;;;;;;;;;10487206;28;20097;-75
2022/07/03 15:05:44;;;;;;;2.92;1.52;;;;;;;;;;10483225;28;20539;-76
2022/07/03 15:10:49;;;;;;;3.67;1.50;;;;;;;;;;10478920;28;20055;-79
2022/07/03 15:15:52;;;;;;;2.38;1.60;;;;;;;;;;10485767;28;20416;-75
2022/07/03 15:20:57;;;;;;;3.47;1.20;;;;;;;;;;10470810;28;20056;-76
2022/07/03 15:26:01;;;;;;;1.58;1.48;;;;;;;;;;10483691;28;20098;-75
2022/07/03 15:31:04;;;;;;;5.95;2.20;;;;;;;;;;10496008;28;20028;-77
2022/07/03 15:36:08;;;;;;;2.55;1.52;;;;;;;;;;10485498;28;20511;-77
2022/07/03 15:41:16;;;;;;;1.90;1.70;;;;;;;;;;10470115;28;20533;-77
2022/07/03 15:46:26;;;;;;;2.17;1.35;;;;;;;;;;10474355;28;20072;-74
2022/07/03 15:51:36;;;;;;;2.25;1.40;;;;;;;;;;10486999;28;20044;-77
2022/07/03 15:56:43;;;;;;;2.90;1.40;;;;;;;;;;10470066;28;20222;-75
2022/07/03 16:07:11;;;;;;;1.98;1.60;;;;;;;;;;10489956;28;20063;-78
2022/07/03 16:12:18;;;;;;;2.45;1.40;;;;;;;;;;10483644;28;20048;-78
2022/07/03 16:17:21;;;;;;;1.50;1.40;;;;;;;;;;10500069;28;20067;-76
2022/07/03 16:22:25;;;;;;;2.22;1.40;;;;;;;;;;10476190;28;20035;-77
2022/07/03 16:27:29;;;;;;;3.90;1.50;;;;;;;;;;10481751;28;20044;-77
2022/07/03 16:32:35;;;;;;;2.20;1.70;;;;;;;;;;10500656;28;20040;-76
2022/07/03 16:37:40;;;;;;;3.50;1.60;;;;;;;;;;10498968;28;20171;-76
2022/07/03 16:42:45;;;;;;;3.70;1.55;;;;;;;;;;10467391;28;20121;-77
2022/07/03 16:47:49;;;;;;;2.75;1.60;;;;;;;;;;10495290;28;20040;-77
2022/07/03 16:52:53;;;;;;;4.47;1.90;;;;;;;;;;10490566;28;20032;-77
2022/07/03 16:57:59;;;;;;;6.32;1.75;;;;;;;;;;10483789;28;20536;-77
2022/07/03 17:03:01;;;;;;;3.30;1.50;;;;;;;;;;10486135;28;20104;-75
2022/07/03 17:08:05;;;;;;;2.45;1.85;;;;;;;;;;10472844;28;20033;-76
2022/07/03 17:13:12;;;;;;;1.73;1.50;;;;;;;;;;10479506;28;20047;-77
2022/07/03 17:18:16;;;;;;;1.77;1.40;;;;;;;;;;10484066;28;20040;-79
2022/07/03 17:23:19;;;;;;;5.13;1.90;;;;;;;;;;10484544;28;20481;-76
2022/07/03 17:28:25;;;;;;;4.35;1.73;;;;;;;;;;10492205;28;20044;-78
2022/07/03 17:33:28;;;;;;;2.90;1.77;;;;;;;;;;10472059;28;20066;-77
2022/07/03 17:38:33;;;;;;;3.15;1.85;;;;;;;;;;10481488;28;20519;-76
2022/07/03 17:43:48;;;;;;;2.10;1.50;;;;;;;;;;10473530;28;20108;-74
2022/07/03 17:48:52;;;;;;;4.22;1.90;;;;;;;;;;10481365;28;20036;-74
2022/07/03 17:53:54;;;;;;;5.75;2.20;;;;;;;;;;10472236;28;20409;-75
2022/07/03 17:58:59;;;;;;;3.95;1.90;;;;;;;;;;10475826;28;20729;-75
2022/07/03 18:04:04;;;;;;;2.67;1.88;;;;;;;;;;10479342;28;20032;-76
2022/07/03 18:09:17;;;;;;;2.85;1.55;;;;;;;;;;10484187;28;20043;-75
2022/07/03 18:14:25;;;;;;;5.65;2.40;;;;;;;;;;10461582;28;20044;-74
2022/07/03 18:19:30;;;;;;;5.28;2.70;;;;;;;;;;10474167;28;20040;-75
2022/07/03 18:24:35;;;;;;;8.13;2.67;;;;;;;;;;10487324;28;20044;-75
2022/07/03 18:29:42;;;;;;;7.70;3.22;;;;;;;;;;10490316;28;20056;-76
2022/07/03 18:34:47;;;;;;;6.63;2.30;;;;;;;;;;10460789;28;20055;-75
2022/07/03 18:39:51;;;;;;;4.20;2.00;;;;;;;;;;10466286;28;20038;-76
2022/07/03 18:44:56;;;;;;;4.80;2.35;;;;;;;;;;10477815;28;21251;-75
2022/07/03 18:49:59;;;;;;;5.38;2.30;;;;;;;;;;10462771;28;20032;-75
2022/07/03 18:55:02;;;;;;;;;;;;;;;;;;10475676;28;20048;-75
2022/07/03 19:00:08;;;;;;;9.43;3.80;;;;;;;;;;10488600;28;19928;-76
2022/07/03 19:05:13;;;;;;;10.77;3.00;;;;;;;;;;10480628;28;20036;-76
2022/07/03 19:10:18;;;;;;;19.25;7.25;;;;;;;;;;10474598;28;20152;-75
2022/07/03 19:15:27;;;;;;;5.88;3.35;;;;;;;;;;10464630;28;20101;-76
2022/07/03 19:20:30;;;;;;;7.82;3.50;;;;;;;;;;10481215;28;20049;-74
2022/07/03 19:25:33;;;;;;;9.35;5.68;;;;;;;;;;10489404;28;20132;-77
2022/07/03 19:30:38;;;;;;;9.43;5.28;;;;;;;;;;10470045;28;20042;-75
2022/07/03 19:35:40;;;;;;;6.13;3.47;;;;;;;;;;10470509;28;20083;-76
2022/07/03 19:40:43;;;;;;;;;;;;;;;;;;10486787;28;22378;-75
2022/07/03 19:45:47;;;;;;;12.02;3.83;;;;;;;;;;10467239;28;19928;-76
2022/07/03 19:50:51;;;;;;;8.93;4.40;;;;;;;;;;10473946;28;20033;-75
2022/07/03 19:55:54;;;;;;;;;;;;;;;;;;10484999;28;20035;-74
2022/07/03 20:00:58;;;;;;;10.82;3.85;;;;;;;;;;10483902;28;19927;-74
2022/07/03 20:06:01;;;;;;;7.22;3.67;;;;;;;;;;10494401;28;20118;-76
2022/07/03 20:11:04;;;;;;;9.88;4.80;;;;;;;;;;10476683;28;20039;-75
2022/07/03 20:16:13;;;;;;;10.80;4.63;;;;;;;;;;10499343;28;20049;-76
2022/07/03 20:21:15;;;;;;;10.57;4.15;;;;;;;;;;10489011;28;20141;-75
2022/07/03 20:26:19;;;;;;;14.68;8.20;;;;;;;;;;10479901;28;20174;-76
2022/07/03 20:31:23;;;;;;;13.52;5.88;;;;;;;;;;10475111;28;20057;-76
2022/07/03 20:36:26;;;;;;;15.02;8.20;;;;;;;;;;10494930;28;20043;-75
2022/07/03 20:41:29;;;;;;;10.43;3.83;;;;;;;;;;10471191;28;20128;-75
2022/07/03 20:46:33;;;;;;;7.53;3.90;;;;;;;;;;10499169;28;20090;-75
2022/07/03 20:51:36;;;;;;;15.20;7.75;;;;;;;;;;10474927;28;20743;-74
2022/07/03 20:56:39;;;;;;;15.82;8.20;;;;;;;;;;10475745;28;20036;-74
2022/07/03 21:01:44;;;;;;;8.82;4.10;;;;;;;;;;10495174;28;20028;-74
2022/07/03 21:06:46;;;;;;;5.90;3.50;;;;;;;;;;10478422;28;20039;-74
2022/07/03 21:11:49;;;;;;;7.65;4.03;;;;;;;;;;10478196;28;20081;-75
2022/07/03 21:16:53;;;;;;;;;;;;;;;;;;10466107;28;20127;-76
2022/07/03 21:21:57;;;;;;;8.25;3.90;;;;;;;;;;10480121;28;20014;-73
2022/07/03 21:27:00;;;;;;;8.07;4.72;;;;;;;;;;10469803;28;20051;-76
2022/07/03 21:32:03;;;;;;;10.35;4.00;;;;;;;;;;10474910;28;20086;-74
2022/07/03 21:37:05;;;;;;;;;;;;;;;;;;10477452;28;20151;-75
2022/07/03 21:42:10;;;;;;;8.45;4.38;;;;;;;;;;10489646;28;20045;-76
2022/07/03 21:47:12;;;;;;;9.85;4.68;;;;;;;;;;10473666;28;20040;-76
2022/07/03 21:52:15;;;;;;;11.30;5.47;;;;;;;;;;10467786;28;20173;-75
2022/07/03 21:57:20;;;;;;;9.73;4.55;;;;;;;;;;10476287;28;20052;-75
2022/07/03 22:02:23;;;;;;;9.88;4.82;;;;;;;;;;10488366;28;20087;-74
2022/07/03 22:07:26;;;;;;;8.63;4.45;;;;;;;;;;10474834;28;20036;-73
2022/07/03 22:12:35;;;;;;;8.38;4.35;;;;;;;;;;10466561;28;20148;-75
2022/07/03 22:17:39;;;;;;;6.85;4.03;;;;;;;;;;10473307;28;20131;-77
2022/07/03 22:22:42;;;;;;;9.27;4.53;;;;;;;;;;10486003;28;20089;-74
2022/07/03 22:27:46;;;;;;;8.38;4.20;;;;;;;;;;10475586;28;20040;-74
2022/07/03 22:32:49;;;;;;;9.07;4.13;;;;;;;;;;10474375;28;20480;-75
2022/07/03 22:37:53;;;;;;;;;;;;;;;;;;10496270;28;20460;-76
2022/07/03 22:42:58;;;;;;;6.93;4.18;;;;;;;;;;10468847;28;19963;-76
2022/07/03 22:48:00;;;;;;;7.38;4.20;;;;;;;;;;10479232;28;20060;-77
2022/07/03 22:53:03;;;;;;;10.05;4.18;;;;;;;;;;10491950;28;20032;-76
2022/07/03 22:58:08;;;;;;;6.90;3.65;;;;;;;;;;10487856;28;20033;-75
2022/07/03 23:03:10;;;;;;;7.80;4.18;;;;;;;;;;10469744;28;20123;-74
2022/07/03 23:08:13;;;;;;;7.45;3.85;;;;;;;;;;10491300;28;20704;-75
2022/07/03 23:13:21;;;;;;;6.50;3.47;;;;;;;;;;10466652;28;20164;-75
2022/07/03 23:18:43;;;;;;;7.75;3.30;;;;;;;;;;10489566;28;20064;-75
2022/07/03 23:23:45;;;;;;;6.05;3.63;;;;;;;;;;10476289;28;20056;-76
2022/07/03 23:28:49;;;;;;;7.53;3.53;;;;;;;;;;10492374;28;20118;-75
2022/07/03 23:33:52;;;;;;;6.18;3.40;;;;;;;;;;10482177;28;20048;-74
2022/07/03 23:38:55;;;;;;;7.55;3.15;;;;;;;;;;10475943;28;20101;-76
2022/07/03 23:43:59;;;;;;;3.47;2.45;;;;;;;;;;10488904;28;20036;-77
2022/07/03 23:54:22;;;;;;;4.55;2.85;;;;;;;;;;10491659;28;20350;-76
2022/07/03 23:59:26;;;;;;;5.28;2.78;;;;;;;;;;10479284;28;20044;-75
